createdAt,value
2018-07-12T00:01:30.440Z,3.90
2018-07-12T00:04:05.460Z,3.97
2018-07-12T00:06:33.854Z,3.60
2018-07-12T00:09:02.008Z,4.23
2018-07-12T00:11:30.363Z,3.83
2018-07-12T00:13:58.485Z,4.53
2018-07-12T00:16:26.850Z,4.00
2018-07-12T00:18:55.425Z,3.77
2018-07-12T00:21:23.861Z,4.50
2018-07-12T00:23:52.052Z,4.20
2018-07-12T00:26:20.062Z,4.60
2018-07-12T00:28:48.376Z,4.23
2018-07-12T00:31:16.876Z,3.80
2018-07-12T00:33:45.217Z,4.00
2018-07-12T00:36:13.633Z,4.10
2018-07-12T00:38:41.967Z,4.57
2018-07-12T00:41:10.611Z,5.07
2018-07-12T00:43:39.009Z,4.67
2018-07-12T00:46:07.520Z,5.03
2018-07-12T00:48:35.989Z,4.93
2018-07-12T00:51:04.303Z,4.53
2018-07-12T00:53:33.012Z,5.57
2018-07-12T00:56:01.303Z,4.60
2018-07-12T00:58:29.626Z,4.30
2018-07-12T01:00:57.736Z,4.80
2018-07-12T01:03:26.188Z,5.07
2018-07-12T01:05:54.659Z,5.10
2018-07-12T01:08:23.110Z,4.87
2018-07-12T01:10:51.304Z,5.83
2018-07-12T01:13:19.805Z,5.47
2018-07-12T01:15:48.207Z,5.00
2018-07-12T01:18:16.711Z,4.80
2018-07-12T01:20:45.204Z,6.83
2018-07-12T01:23:13.473Z,4.90
2018-07-12T01:25:41.755Z,5.30
2018-07-12T01:28:09.823Z,4.90
2018-07-12T01:30:38.187Z,5.33
2018-07-12T01:33:08.419Z,5.30
2018-07-12T01:35:37.214Z,4.77
2018-07-12T01:38:05.831Z,5.23
2018-07-12T01:40:34.231Z,5.17
2018-07-12T01:43:02.450Z,5.60
2018-07-12T01:45:30.836Z,5.63
2018-07-12T01:47:59.279Z,5.83
2018-07-12T01:50:27.540Z,5.67
2018-07-12T01:52:55.927Z,5.13
2018-07-12T01:55:24.400Z,5.23
2018-07-12T01:57:58.017Z,5.27
2018-07-12T02:00:26.404Z,6.90
2018-07-12T02:02:54.907Z,4.97
2018-07-12T02:05:24.435Z,5.53
2018-07-12T02:07:52.941Z,6.43
2018-07-12T02:10:21.430Z,5.37
2018-07-12T02:12:49.713Z,5.00
2018-07-12T02:15:18.615Z,5.47
2018-07-12T02:17:47.007Z,6.13
2018-07-12T02:20:15.439Z,5.40
2018-07-12T02:22:44.015Z,5.60
2018-07-12T02:25:12.155Z,5.07
2018-07-12T02:27:40.512Z,5.00
2018-07-12T02:30:08.780Z,5.50
2018-07-12T02:32:37.161Z,4.97
2018-07-12T02:35:05.606Z,5.40
2018-07-12T02:37:34.046Z,4.83
2018-07-12T02:40:02.141Z,5.80
2018-07-12T02:42:30.236Z,5.43
2018-07-12T02:44:58.387Z,4.70
2018-07-12T02:47:26.544Z,5.13
2018-07-12T02:49:54.547Z,4.73
2018-07-12T02:52:22.655Z,4.90
2018-07-12T02:54:50.743Z,5.20
2018-07-12T02:57:18.765Z,5.23
2018-07-12T02:59:46.807Z,4.90
2018-07-12T03:02:14.840Z,5.83
2018-07-12T03:04:42.928Z,4.70
2018-07-12T03:07:11.180Z,5.23
2018-07-12T03:09:39.653Z,5.07
2018-07-12T03:12:07.816Z,5.70
2018-07-12T03:14:36.044Z,5.73
2018-07-12T03:17:04.439Z,5.33
2018-07-12T03:19:32.475Z,5.87
2018-07-12T03:22:00.551Z,5.07
2018-07-12T03:24:28.694Z,5.10
2018-07-12T03:26:56.662Z,5.50
2018-07-12T03:29:24.821Z,4.83
2018-07-12T03:31:52.967Z,4.93
2018-07-12T03:34:21.078Z,5.67
2018-07-12T03:36:49.300Z,5.50
2018-07-12T03:39:17.411Z,5.83
2018-07-12T03:41:45.524Z,5.03
2018-07-12T03:44:13.611Z,4.90
2018-07-12T03:46:41.750Z,6.87
2018-07-12T03:49:09.967Z,5.37
2018-07-12T03:51:38.393Z,5.47
2018-07-12T03:54:06.561Z,5.27
2018-07-12T03:56:34.908Z,5.60
2018-07-12T03:59:03.475Z,5.43
2018-07-12T04:01:31.966Z,5.60
2018-07-12T04:04:00.170Z,6.03
2018-07-12T04:06:28.611Z,5.40
2018-07-12T04:08:56.942Z,4.97
2018-07-12T04:11:25.160Z,4.93
2018-07-12T04:13:53.303Z,5.73
2018-07-12T04:16:21.872Z,5.20
2018-07-12T04:18:49.939Z,5.07
2018-07-12T04:21:17.965Z,5.67
2018-07-12T04:23:46.052Z,5.13
2018-07-12T04:26:14.316Z,5.60
2018-07-12T04:28:42.521Z,5.97
2018-07-12T04:31:21.057Z,5.20
2018-07-12T04:33:49.430Z,5.70
2018-07-12T04:36:17.627Z,5.37
2018-07-12T04:38:45.644Z,5.67
2018-07-12T04:41:13.923Z,5.50
2018-07-12T04:43:42.350Z,5.03
2018-07-12T04:46:10.407Z,5.23
2018-07-12T04:48:38.580Z,5.53
2018-07-12T04:51:13.226Z,4.37
2018-07-12T04:53:41.383Z,5.23
2018-07-12T04:56:09.459Z,4.83
2018-07-12T04:58:37.610Z,4.87
2018-07-12T05:01:16.586Z,4.93
2018-07-12T05:03:44.547Z,5.03
2018-07-12T05:06:12.676Z,6.10
2018-07-12T05:08:46.227Z,5.17
2018-07-12T05:11:14.328Z,4.77
2018-07-12T05:13:42.287Z,4.90
2018-07-12T05:16:10.424Z,4.40
2018-07-12T05:18:38.570Z,4.77
2018-07-12T05:21:06.704Z,4.53
2018-07-12T05:23:34.867Z,5.33
2018-07-12T05:26:10.352Z,5.00
2018-07-12T05:28:38.915Z,4.73
2018-07-12T05:31:07.371Z,4.80
2018-07-12T05:33:35.877Z,4.07
2018-07-12T05:37:10.827Z,5.00
2018-07-12T05:39:41.463Z,4.30
2018-07-12T05:42:12.395Z,3.90
2018-07-12T05:44:43.364Z,3.80
2018-07-12T05:47:14.407Z,3.63
2018-07-12T05:52:46.598Z,4.27
2018-07-12T05:55:17.459Z,4.20
2018-07-12T05:57:55.473Z,4.80
2018-07-12T06:00:26.468Z,4.60
2018-07-12T06:02:57.177Z,4.20
2018-07-12T06:05:28.159Z,4.10
2018-07-12T06:07:58.975Z,4.10
2018-07-12T06:10:30.029Z,3.97
2018-07-12T06:13:00.803Z,4.17
2018-07-12T06:15:31.804Z,3.67
2018-07-12T06:18:02.728Z,3.83
2018-07-12T06:20:33.548Z,3.77
2018-07-12T06:23:18.562Z,3.50
2018-07-12T06:25:49.570Z,3.67
2018-07-12T06:28:20.582Z,3.47
2018-07-12T06:30:51.601Z,3.37
2018-07-12T06:33:22.588Z,3.40
2018-07-12T06:35:53.617Z,3.60
2018-07-12T06:38:24.668Z,3.70
2018-07-12T06:40:55.610Z,3.02
2018-07-12T06:43:26.652Z,3.42
2018-07-12T06:45:57.649Z,3.45
2018-07-12T06:48:28.701Z,3.22
2018-07-12T06:50:59.736Z,3.00
2018-07-12T07:02:39.036Z,2.50
2018-07-12T07:05:10.033Z,2.83
2018-07-12T07:07:41.063Z,2.58
2018-07-12T07:10:12.476Z,2.90
2018-07-12T07:12:43.434Z,2.70
2018-07-12T07:15:14.538Z,2.83
2018-07-12T07:17:51.804Z,2.83
2018-07-12T07:20:22.923Z,2.52
2018-07-12T07:22:53.617Z,2.42
2018-07-12T07:25:24.543Z,2.87
2018-07-12T07:27:55.887Z,3.00
2018-07-12T07:30:26.550Z,2.92
2018-07-12T07:32:57.131Z,3.12
2018-07-12T07:35:28.475Z,3.02
2018-07-12T07:37:59.182Z,2.70
2018-07-12T07:40:30.119Z,2.70
2018-07-12T07:43:00.995Z,2.47
2018-07-12T07:45:31.959Z,2.70
2018-07-12T07:48:03.010Z,2.47
2018-07-12T07:50:33.948Z,2.98
2018-07-12T07:53:05.003Z,2.42
2018-07-12T07:55:35.990Z,2.47
2018-07-12T07:58:07.059Z,2.20
2018-07-12T08:00:37.168Z,2.60
2018-07-12T08:03:07.799Z,2.83
2018-07-12T08:05:39.019Z,2.55
2018-07-12T08:08:09.781Z,2.50
2018-07-12T08:10:41.118Z,2.47
2018-07-12T08:13:11.830Z,2.27
2018-07-12T08:15:42.778Z,2.80
2018-07-12T08:18:13.810Z,2.77
2018-07-12T08:20:44.778Z,2.55
2018-07-12T08:23:15.816Z,2.33
2018-07-12T08:25:46.854Z,2.40
2018-07-12T08:28:29.283Z,2.50
2018-07-12T08:31:00.387Z,2.50
2018-07-12T08:33:31.258Z,2.60
2018-07-12T08:36:02.224Z,2.70
2018-07-12T08:38:32.912Z,2.58
2018-07-12T08:41:04.254Z,2.10
2018-07-12T08:43:34.867Z,2.62
2018-07-12T08:46:05.986Z,2.50
2018-07-12T08:48:36.952Z,2.17
2018-07-12T08:51:07.831Z,2.27
2018-07-12T08:53:38.572Z,1.98
2018-07-12T08:56:09.604Z,2.25
2018-07-12T08:58:40.575Z,2.00
2018-07-12T09:01:11.617Z,2.25
2018-07-12T09:03:42.971Z,2.10
2018-07-12T09:06:13.914Z,2.00
2018-07-12T09:08:44.894Z,2.17
2018-07-12T09:11:15.678Z,2.10
2018-07-12T09:13:48.090Z,2.00
2018-07-12T09:16:19.130Z,1.80
2018-07-12T09:18:50.444Z,2.20
2018-07-12T09:21:21.452Z,2.27
2018-07-12T09:23:52.203Z,2.10
2018-07-12T09:26:23.467Z,2.40
2018-07-12T09:28:54.432Z,2.35
2018-07-12T09:31:25.483Z,2.35
2018-07-12T09:33:59.154Z,2.40
2018-07-12T09:36:30.223Z,2.05
2018-07-12T09:39:01.131Z,2.60
2018-07-12T09:41:32.135Z,2.37
2018-07-12T09:44:03.643Z,1.85
2018-07-12T09:46:34.844Z,2.50
2018-07-12T09:49:06.113Z,2.90
2018-07-12T09:51:37.056Z,2.40
2018-07-12T09:54:07.727Z,2.72
2018-07-12T09:56:54.706Z,1.87
2018-07-12T09:59:25.854Z,2.00
2018-07-12T10:02:02.139Z,2.27
2018-07-12T10:04:34.185Z,1.80
2018-07-12T10:07:10.177Z,2.20
2018-07-12T10:09:46.135Z,1.82
2018-07-12T10:12:22.184Z,2.00
2018-07-12T10:14:56.995Z,2.35
2018-07-12T10:17:33.176Z,1.87
2018-07-12T10:20:05.350Z,2.00
2018-07-12T10:22:36.028Z,1.98
2018-07-12T10:25:07.422Z,1.60
2018-07-12T10:27:38.053Z,1.80
2018-07-12T10:30:08.988Z,1.80
2018-07-12T10:32:40.024Z,1.60
2018-07-12T10:35:11.272Z,1.47
2018-07-12T10:37:41.989Z,1.87
2018-07-12T10:40:12.827Z,1.30
2018-07-12T10:42:43.534Z,1.75
2018-07-12T10:45:14.478Z,1.52
2018-07-12T10:47:45.011Z,1.40
2018-07-12T10:50:35.908Z,1.45
2018-07-12T10:53:06.877Z,1.65
2018-07-12T10:55:37.871Z,1.60
2018-07-12T10:58:08.926Z,1.50
2018-07-12T11:00:39.376Z,1.50
2018-07-12T11:03:38.249Z,1.60
2018-07-12T11:06:08.998Z,1.45
2018-07-12T11:08:39.503Z,1.50
2018-07-12T11:11:09.999Z,1.55
2018-07-12T11:13:50.871Z,2.00
2018-07-12T11:16:21.240Z,1.67
2018-07-12T11:18:51.804Z,1.65
2018-07-12T11:21:22.472Z,1.85
2018-07-12T11:23:52.966Z,1.60
2018-07-12T11:26:23.516Z,1.70
2018-07-12T11:28:53.999Z,1.45
2018-07-12T11:31:24.408Z,1.92
2018-07-12T11:33:55.084Z,1.65
2018-07-12T11:36:25.702Z,1.40
2018-07-12T11:39:02.285Z,1.50
2018-07-12T11:41:33.098Z,1.65
2018-07-12T11:44:09.408Z,1.55
2018-07-12T11:46:45.841Z,1.32
2018-07-12T11:49:16.841Z,1.55
2018-07-12T11:51:49.789Z,1.20
2018-07-12T11:54:20.713Z,1.40
2018-07-12T11:56:51.490Z,1.80
2018-07-12T11:59:22.456Z,1.55
2018-07-12T12:01:56.849Z,1.27
2018-07-12T12:04:28.514Z,1.62
2018-07-12T12:07:00.979Z,1.30
2018-07-12T12:09:32.248Z,1.50
2018-07-12T12:12:03.220Z,1.65
2018-07-12T12:14:33.943Z,1.52
2018-07-12T12:17:04.487Z,1.70
2018-07-12T12:19:35.922Z,1.40
2018-07-12T12:22:12.378Z,1.60
2018-07-12T12:24:45.313Z,1.40
2018-07-12T12:27:15.938Z,1.37
2018-07-12T12:29:46.592Z,1.45
2018-07-12T12:32:17.443Z,1.37
2018-07-12T12:34:48.518Z,1.72
2018-07-12T12:37:19.375Z,1.60
2018-07-12T12:39:50.393Z,1.65
2018-07-12T12:42:21.486Z,1.60
2018-07-12T12:44:52.362Z,1.40
2018-07-12T12:47:23.420Z,1.47
2018-07-12T12:49:54.501Z,1.50
2018-07-12T12:52:25.469Z,1.47
2018-07-12T12:54:56.095Z,1.45
2018-07-12T12:57:27.145Z,1.42
2018-07-12T13:03:03.822Z,1.50
2018-07-12T13:05:34.672Z,1.62
2018-07-12T13:08:05.593Z,1.60
2018-07-12T13:10:36.235Z,1.55
2018-07-12T13:13:08.091Z,1.47
2018-07-12T13:15:39.036Z,1.30
2018-07-12T13:18:09.791Z,1.30
2018-07-12T13:20:40.740Z,1.30
2018-07-12T13:23:23.717Z,1.32
2018-07-12T13:25:54.644Z,1.57
2018-07-12T13:28:25.612Z,1.60
2018-07-12T13:30:56.645Z,1.40
2018-07-12T13:33:27.650Z,1.47
2018-07-12T13:38:58.897Z,1.50
2018-07-12T13:41:29.896Z,1.50
2018-07-12T13:44:16.907Z,1.50
2018-07-12T13:46:48.957Z,1.60
2018-07-12T13:49:19.892Z,1.40
2018-07-12T13:51:53.801Z,1.70
2018-07-12T13:54:24.745Z,1.70
2018-07-12T13:56:55.761Z,1.55
2018-07-12T13:59:26.777Z,1.60
2018-07-12T14:01:57.794Z,1.32
2018-07-12T14:04:28.521Z,1.35
2018-07-12T14:07:00.013Z,1.07
2018-07-12T14:09:30.842Z,0.90
2018-07-12T14:12:01.571Z,1.05
2018-07-12T14:14:32.467Z,1.07
2018-07-12T14:17:03.099Z,1.30
2018-07-12T14:19:34.051Z,1.07
2018-07-12T14:25:23.571Z,1.30
2018-07-12T14:27:54.606Z,1.40
2018-07-12T14:30:25.595Z,1.10
2018-07-12T14:32:56.933Z,1.40
2018-07-12T14:35:27.564Z,1.50
2018-07-12T14:38:02.131Z,1.12
2018-07-12T14:40:32.647Z,1.55
2018-07-12T14:43:03.975Z,1.40
2018-07-12T14:45:34.179Z,1.60
2018-07-12T14:48:04.657Z,1.20
2018-07-12T14:50:35.303Z,1.35
2018-07-12T14:53:06.491Z,1.50
2018-07-12T14:55:37.660Z,1.40
2018-07-12T14:58:09.036Z,1.50
2018-07-12T15:00:39.728Z,1.32
2018-07-12T15:03:10.631Z,1.62
2018-07-12T15:05:41.387Z,1.50
2018-07-12T15:08:12.332Z,1.42
2018-07-12T15:10:43.246Z,1.80
2018-07-12T15:13:14.146Z,2.08
2018-07-12T15:15:45.095Z,1.52
2018-07-12T15:18:16.168Z,1.62
2018-07-12T15:20:46.837Z,1.55
2018-07-12T15:23:30.290Z,1.60
2018-07-12T15:26:01.303Z,1.90
2018-07-12T15:28:31.931Z,1.70
2018-07-12T15:31:02.872Z,1.72
2018-07-12T15:33:34.239Z,1.30
2018-07-12T15:36:05.391Z,1.47
2018-07-12T15:38:36.182Z,1.67
2018-07-12T15:41:06.596Z,1.70
2018-07-12T15:43:37.013Z,1.60
2018-07-12T15:46:07.546Z,1.67
2018-07-12T15:48:37.948Z,1.70
2018-07-12T15:51:11.343Z,1.77
2018-07-12T15:53:41.837Z,1.95
2018-07-12T15:56:12.384Z,1.65
2018-07-12T15:58:42.864Z,1.55
2018-07-12T16:01:13.363Z,1.47
2018-07-12T16:03:43.876Z,1.60
2018-07-12T16:06:14.241Z,1.32
2018-07-12T16:08:44.645Z,1.50
2018-07-12T16:11:15.107Z,1.52
2018-07-12T16:13:45.606Z,1.55
2018-07-12T16:16:16.457Z,1.57
2018-07-12T16:18:46.919Z,1.67
2018-07-12T16:21:17.692Z,1.50
2018-07-12T16:23:47.747Z,1.30
2018-07-12T16:26:18.488Z,1.67
2018-07-12T16:28:48.824Z,1.70
2018-07-12T16:31:19.235Z,1.60
2018-07-12T16:33:49.760Z,2.00
2018-07-12T16:36:20.278Z,1.90
2018-07-12T16:38:50.716Z,1.98
2018-07-12T16:41:21.255Z,1.95
2018-07-12T16:43:51.620Z,1.90
2018-07-12T16:46:22.412Z,1.90
2018-07-12T16:48:52.848Z,1.80
2018-07-12T16:51:23.478Z,2.00
2018-07-12T16:53:54.210Z,2.17
2018-07-12T16:56:25.622Z,2.40
2018-07-12T16:58:56.732Z,2.17
2018-07-12T17:01:28.911Z,2.20
2018-07-12T17:03:59.851Z,2.25
2018-07-12T17:06:31.328Z,2.67
2018-07-12T17:09:01.924Z,2.80
2018-07-12T17:11:33.693Z,2.70
2018-07-12T17:14:04.417Z,2.90
2018-07-12T17:16:35.343Z,2.70
2018-07-12T17:19:06.741Z,3.50
2018-07-12T17:21:37.733Z,2.37
2018-07-12T17:24:10.719Z,2.50
2018-07-12T17:26:41.756Z,2.37
2018-07-12T17:29:12.493Z,2.40
2018-07-12T17:31:43.781Z,2.67
2018-07-12T17:34:18.422Z,3.13
2018-07-12T17:36:49.485Z,2.43
2018-07-12T17:39:21.346Z,3.20
2018-07-12T17:41:52.020Z,5.03
2018-07-12T17:44:22.839Z,4.67
2018-07-12T17:46:53.384Z,3.50
2018-07-12T17:49:23.882Z,3.07
2018-07-12T17:51:54.553Z,3.23
2018-07-12T17:54:24.917Z,3.70
2018-07-12T17:56:55.523Z,4.57
2018-07-12T17:59:27.272Z,5.10
2018-07-12T18:01:58.310Z,3.60
2018-07-12T18:04:28.649Z,7.70
2018-07-12T18:06:59.135Z,14.03
2018-07-12T18:09:29.773Z,11.77
2018-07-12T18:12:00.399Z,5.83
2018-07-12T18:14:30.854Z,11.50
2018-07-12T18:17:01.355Z,5.90
2018-07-12T18:19:31.795Z,3.40
2018-07-12T18:22:02.371Z,3.10
2018-07-12T18:24:33.778Z,3.73
2018-07-12T18:27:03.788Z,3.67
2018-07-12T18:29:40.816Z,3.47
2018-07-12T18:32:11.770Z,3.10
2018-07-12T18:34:44.189Z,3.80
2018-07-12T18:37:14.870Z,3.57
2018-07-12T18:39:45.489Z,3.07
2018-07-12T18:42:16.451Z,3.63
2018-07-12T18:44:46.807Z,3.40
2018-07-12T18:47:17.445Z,3.40
2018-07-12T18:49:49.554Z,3.67
2018-07-12T18:52:20.042Z,3.70
2018-07-12T18:54:54.147Z,3.80
2018-07-12T18:57:24.844Z,3.83
2018-07-12T18:59:55.526Z,3.60
2018-07-12T19:02:26.539Z,4.30
2018-07-12T19:04:59.765Z,3.80
2018-07-12T19:07:30.491Z,3.40
2018-07-12T19:10:01.000Z,3.67
2018-07-12T19:12:31.900Z,3.73
2018-07-12T19:15:07.225Z,3.67
2018-07-12T19:17:38.823Z,3.67
2018-07-12T19:20:09.285Z,3.60
2018-07-12T19:22:40.182Z,3.43
2018-07-12T19:25:10.923Z,3.30
2018-07-12T19:27:41.519Z,3.70
2018-07-12T19:30:19.705Z,3.33
2018-07-12T19:32:50.449Z,3.30
2018-07-12T19:35:21.046Z,3.30
2018-07-12T19:37:51.833Z,3.53
2018-07-12T19:40:22.511Z,3.07
2018-07-12T19:42:53.619Z,3.30
2018-07-12T19:45:24.299Z,3.60
2018-07-12T19:47:55.067Z,3.30
2018-07-12T19:50:25.559Z,3.20
2018-07-12T19:52:57.242Z,2.97
2018-07-12T19:55:34.818Z,3.43
2018-07-12T19:58:09.015Z,3.20
2018-07-12T20:00:43.776Z,3.47
2018-07-12T20:03:14.598Z,3.27
2018-07-12T20:05:48.365Z,3.40
2018-07-12T20:08:19.805Z,3.53
2018-07-12T20:10:50.711Z,3.40
2018-07-12T20:13:22.262Z,2.97
2018-07-12T20:15:53.044Z,3.53
2018-07-12T20:18:24.200Z,3.30
2018-07-12T20:20:54.696Z,3.43
2018-07-12T20:23:27.199Z,3.20
2018-07-12T20:25:57.680Z,3.13
2018-07-12T20:28:28.209Z,3.87
2018-07-12T20:30:59.102Z,3.37
2018-07-12T20:33:29.663Z,3.80
2018-07-12T20:36:00.187Z,3.70
2018-07-12T20:38:30.841Z,3.53
2018-07-12T20:41:01.302Z,3.60
2018-07-12T20:43:31.995Z,3.57
2018-07-12T20:46:02.335Z,3.80
2018-07-12T20:48:32.966Z,3.30
2018-07-12T20:51:03.507Z,4.30
2018-07-12T20:53:34.239Z,3.63
2018-07-12T20:56:05.728Z,3.57
2018-07-12T20:58:36.370Z,3.80
2018-07-12T21:01:06.907Z,3.60
2018-07-12T21:03:37.748Z,3.70
2018-07-12T21:06:08.355Z,3.60
2018-07-12T21:08:39.020Z,4.00
2018-07-12T21:11:09.428Z,3.97
2018-07-12T21:13:39.751Z,4.10
2018-07-12T21:16:12.752Z,3.90
2018-07-12T21:18:43.196Z,4.37
2018-07-12T21:21:13.916Z,3.60
2018-07-12T21:23:44.530Z,3.40
2018-07-12T21:26:15.055Z,3.87
2018-07-12T21:28:45.613Z,3.63
2018-07-12T21:31:16.115Z,3.83
2018-07-12T21:33:46.744Z,4.17
2018-07-12T21:36:17.032Z,4.00
2018-07-12T21:38:49.388Z,4.27
2018-07-12T21:41:21.351Z,4.27
2018-07-12T21:43:51.955Z,4.10
2018-07-12T21:46:22.435Z,4.87
2018-07-12T21:48:52.814Z,3.23
2018-07-12T21:51:23.418Z,3.83
2018-07-12T21:53:53.991Z,3.90
2018-07-12T21:56:24.790Z,3.73
2018-07-12T21:58:55.248Z,3.90
2018-07-12T22:01:25.620Z,3.80
2018-07-12T22:03:56.274Z,4.10
2018-07-12T22:08:36.145Z,4.00
2018-07-12T22:11:07.286Z,4.33
2018-07-12T22:13:38.428Z,4.00
2018-07-12T22:16:09.025Z,4.00
2018-07-12T22:18:40.763Z,3.50
2018-07-12T22:21:11.739Z,4.20
2018-07-12T22:23:42.049Z,3.73
2018-07-12T22:26:12.431Z,4.10
2018-07-12T22:28:42.958Z,3.60
2018-07-12T22:31:13.643Z,3.50
2018-07-12T22:33:44.004Z,4.23
2018-07-12T22:36:14.377Z,4.20
2018-07-12T22:38:44.876Z,4.27
2018-07-12T22:41:15.452Z,4.30
2018-07-12T22:43:45.867Z,4.13
2018-07-12T22:46:16.484Z,3.93
2018-07-12T22:48:46.888Z,4.13
2018-07-12T22:51:17.396Z,3.47
2018-07-12T22:53:47.860Z,3.80
2018-07-12T22:56:18.379Z,3.87
2018-07-12T22:58:48.815Z,4.23
2018-07-12T23:01:19.346Z,4.03
2018-07-12T23:03:49.986Z,3.90
2018-07-12T23:06:20.488Z,4.20
2018-07-12T23:08:51.375Z,4.20
2018-07-12T23:11:22.139Z,3.63
2018-07-12T23:13:52.581Z,3.70
2018-07-12T23:16:23.031Z,3.80
2018-07-12T23:18:53.762Z,3.50
2018-07-12T23:21:32.226Z,4.33
2018-07-12T23:24:03.661Z,3.93
2018-07-12T23:26:35.087Z,3.80
2018-07-12T23:29:05.713Z,3.90
2018-07-12T23:31:36.183Z,3.97
2018-07-12T23:34:06.551Z,4.33
2018-07-12T23:36:36.882Z,4.23
2018-07-12T23:39:09.654Z,4.00
2018-07-12T23:41:40.177Z,4.47
2018-07-12T23:44:10.765Z,4.30
2018-07-12T23:46:41.188Z,4.23
2018-07-12T23:49:15.314Z,4.23
2018-07-12T23:51:45.897Z,4.57
2018-07-12T23:54:16.470Z,4.10
2018-07-12T23:56:46.756Z,4.77
2018-07-12T23:59:17.489Z,3.83
